createdAt,value
2022-10-16T00:00:27.752Z,0
2022-10-16T00:01:22.851Z,0
2022-10-16T00:02:23.316Z,0
2022-10-16T00:03:25.308Z,0
2022-10-16T00:04:22.877Z,0
2022-10-16T00:05:22.848Z,0
2022-10-16T00:06:25.633Z,0
2022-10-16T00:07:23.021Z,0
2022-10-16T00:08:22.911Z,0
2022-10-16T00:09:22.863Z,0
2022-10-16T00:10:22.900Z,0
2022-10-16T00:11:25.876Z,0
2022-10-16T00:12:26.514Z,0
2022-10-16T00:13:22.868Z,0
2022-10-16T00:14:26.030Z,0
2022-10-16T00:15:22.905Z,0
2022-10-16T00:16:27.017Z,0
2022-10-16T00:17:26.050Z,0
2022-10-16T00:18:22.891Z,0
2022-10-16T00:19:22.872Z,0
2022-10-16T00:20:22.895Z,0
2022-10-16T00:21:22.873Z,0
2022-10-16T00:22:26.307Z,0
2022-10-16T00:23:22.894Z,0
2022-10-16T00:24:22.940Z,0
2022-10-16T00:25:22.876Z,0
2022-10-16T00:26:22.893Z,0
2022-10-16T00:27:22.913Z,0
2022-10-16T00:28:26.298Z,0
2022-10-16T00:29:22.880Z,0
2022-10-16T00:30:22.884Z,0
2022-10-16T00:31:22.879Z,0
2022-10-16T00:32:23.086Z,0
2022-10-16T00:33:24.503Z,0
2022-10-16T00:34:22.902Z,0
2022-10-16T00:35:22.899Z,0
2022-10-16T00:36:22.898Z,0
2022-10-16T00:37:22.967Z,0
2022-10-16T00:38:23.067Z,0
2022-10-16T00:40:22.965Z,0
2022-10-16T00:41:22.911Z,0
2022-10-16T00:42:23.154Z,0
2022-10-16T00:43:23.017Z,0
2022-10-16T00:44:25.959Z,0
2022-10-16T00:45:22.937Z,0
2022-10-16T00:46:22.934Z,0
2022-10-16T00:47:22.918Z,0
2022-10-16T00:48:22.942Z,0
2022-10-16T00:49:25.857Z,0
2022-10-16T00:50:22.921Z,0
2022-10-16T00:51:22.913Z,0
2022-10-16T00:52:23.120Z,0
2022-10-16T00:53:23.122Z,0
2022-10-16T00:54:22.953Z,0
2022-10-16T00:55:25.978Z,0
2022-10-16T00:56:22.949Z,0
2022-10-16T00:57:23.970Z,0
2022-10-16T00:58:22.987Z,0
2022-10-16T00:59:23.014Z,0
2022-10-16T01:00:24.022Z,0
2022-10-16T01:01:23.341Z,0
2022-10-16T01:02:23.176Z,0
2022-10-16T01:03:22.964Z,0
2022-10-16T01:04:23.099Z,0
2022-10-16T01:05:22.979Z,0
2022-10-16T01:07:23.138Z,0
2022-10-16T01:08:22.977Z,0
2022-10-16T01:09:23.024Z,0
2022-10-16T01:10:22.992Z,0
2022-10-16T01:11:26.011Z,0
2022-10-16T01:12:22.988Z,0
2022-10-16T01:13:22.980Z,0
2022-10-16T01:14:22.973Z,0
2022-10-16T01:15:22.979Z,0
2022-10-16T01:16:22.990Z,0
2022-10-16T01:17:23.203Z,0
2022-10-16T01:18:22.975Z,0
2022-10-16T01:19:22.975Z,0
2022-10-16T01:20:22.982Z,0
2022-10-16T01:21:23.180Z,0
2022-10-16T01:22:22.983Z,0
2022-10-16T01:23:23.009Z,0
2022-10-16T01:24:22.985Z,0
2022-10-16T01:25:22.977Z,0
2022-10-16T01:26:23.006Z,0
2022-10-16T01:27:26.579Z,0
2022-10-16T01:28:23.218Z,0
2022-10-16T01:29:22.981Z,0
2022-10-16T01:30:22.999Z,0
2022-10-16T01:31:23.017Z,0
2022-10-16T01:32:23.010Z,0
2022-10-16T01:33:23.024Z,0
2022-10-16T01:34:23.004Z,0
2022-10-16T01:35:23.011Z,0
2022-10-16T01:36:23.040Z,0
2022-10-16T01:37:23.372Z,0
2022-10-16T01:38:23.327Z,0
2022-10-16T01:39:23.041Z,0
2022-10-16T01:40:23.001Z,0
2022-10-16T01:41:23.077Z,0
2022-10-16T01:42:23.248Z,0
2022-10-16T01:43:26.126Z,0
2022-10-16T01:44:23.016Z,0
2022-10-16T01:45:23.040Z,0
2022-10-16T01:46:23.009Z,0
2022-10-16T01:47:23.285Z,0
2022-10-16T01:48:23.041Z,0
2022-10-16T01:49:26.150Z,0
2022-10-16T01:50:23.027Z,0
2022-10-16T01:51:23.032Z,0
2022-10-16T01:52:23.235Z,0
2022-10-16T01:53:23.085Z,0
2022-10-16T01:54:25.837Z,0
2022-10-16T01:55:23.045Z,0
2022-10-16T01:56:23.072Z,0
2022-10-16T01:57:23.086Z,0
2022-10-16T01:58:23.104Z,0
2022-10-16T01:59:23.092Z,0
2022-10-16T02:00:26.132Z,0
2022-10-16T02:01:23.140Z,0
2022-10-16T02:02:23.154Z,0
2022-10-16T02:03:23.093Z,0
2022-10-16T02:04:23.044Z,0
2022-10-16T02:05:26.168Z,0
2022-10-16T02:06:23.075Z,0
2022-10-16T02:07:23.046Z,0
2022-10-16T02:08:23.050Z,0
2022-10-16T02:09:23.101Z,0
2022-10-16T02:10:23.439Z,0
2022-10-16T02:11:26.082Z,0
2022-10-16T02:12:23.306Z,0
2022-10-16T02:13:23.060Z,0
2022-10-16T02:14:23.114Z,0
2022-10-16T02:15:23.116Z,0
2022-10-16T02:16:26.118Z,0
2022-10-16T02:17:23.071Z,0
2022-10-16T02:18:23.115Z,0
2022-10-16T02:19:23.128Z,0
2022-10-16T02:20:23.198Z,0
2022-10-16T02:21:23.088Z,0
2022-10-16T02:22:26.524Z,0
2022-10-16T02:23:23.081Z,0
2022-10-16T02:24:23.106Z,0
2022-10-16T02:25:23.132Z,0
2022-10-16T02:26:23.081Z,0
2022-10-16T02:27:25.930Z,0
2022-10-16T02:28:23.574Z,0
2022-10-16T02:29:23.138Z,0
2022-10-16T02:30:23.143Z,0
2022-10-16T02:31:23.172Z,0
2022-10-16T02:32:23.208Z,0
2022-10-16T02:33:26.140Z,0
2022-10-16T02:34:23.113Z,0
2022-10-16T02:35:23.118Z,0
2022-10-16T02:36:23.097Z,0
2022-10-16T02:37:23.106Z,0
2022-10-16T02:38:26.187Z,0
2022-10-16T02:39:23.152Z,0
2022-10-16T02:40:29.805Z,0
2022-10-16T02:41:23.143Z,0
2022-10-16T02:42:23.318Z,0
2022-10-16T02:43:23.135Z,0
2022-10-16T02:44:24.294Z,0
2022-10-16T02:45:23.129Z,0
2022-10-16T02:46:23.016Z,0
2022-10-16T02:47:23.184Z,0
2022-10-16T02:48:23.335Z,0
2022-10-16T02:49:26.184Z,0
2022-10-16T02:50:23.130Z,0
2022-10-16T02:51:23.146Z,0
2022-10-16T02:52:23.382Z,0
2022-10-16T02:53:23.131Z,0
2022-10-16T02:54:23.141Z,0
2022-10-16T02:55:26.183Z,0
2022-10-16T02:56:23.467Z,0
2022-10-16T02:57:23.286Z,0
2022-10-16T02:58:23.246Z,0
2022-10-16T02:59:23.170Z,0
2022-10-16T03:00:25.911Z,0
2022-10-16T03:01:23.572Z,0
2022-10-16T03:02:23.234Z,0
2022-10-16T03:03:23.195Z,0
2022-10-16T03:04:23.165Z,0
2022-10-16T03:05:24.463Z,0
2022-10-16T03:06:25.993Z,0
2022-10-16T03:07:23.350Z,0
2022-10-16T03:08:23.166Z,0
2022-10-16T03:09:23.188Z,0
2022-10-16T03:10:23.175Z,0
2022-10-16T03:11:26.269Z,0
2022-10-16T03:12:23.181Z,0
2022-10-16T03:13:23.180Z,0
2022-10-16T03:14:23.776Z,0
2022-10-16T03:15:23.182Z,0
2022-10-16T03:16:25.967Z,0
2022-10-16T03:17:23.320Z,0
2022-10-16T03:18:23.248Z,0
2022-10-16T03:19:23.321Z,0
2022-10-16T03:20:23.190Z,0
2022-10-16T03:21:23.247Z,0
2022-10-16T03:22:26.025Z,0
2022-10-16T03:23:23.483Z,0
2022-10-16T03:24:23.332Z,0
2022-10-16T03:25:23.225Z,0
2022-10-16T03:26:23.211Z,0
2022-10-16T03:27:30.047Z,0
2022-10-16T03:28:23.311Z,0
2022-10-16T03:29:24.334Z,0
2022-10-16T03:30:23.219Z,0
2022-10-16T03:31:23.300Z,0
2022-10-16T03:32:23.283Z,0
2022-10-16T03:33:23.247Z,0
2022-10-16T03:34:23.297Z,0
2022-10-16T03:35:23.304Z,0
2022-10-16T03:36:23.307Z,0
2022-10-16T03:37:23.461Z,0
2022-10-16T03:38:26.324Z,0
2022-10-16T03:39:23.347Z,0
2022-10-16T03:40:23.214Z,0
2022-10-16T03:41:23.264Z,0
2022-10-16T03:42:23.218Z,0
2022-10-16T03:43:24.258Z,0
2022-10-16T03:44:23.393Z,0
2022-10-16T03:45:23.295Z,0
2022-10-16T03:46:23.273Z,0
2022-10-16T03:47:23.464Z,0
2022-10-16T03:48:23.307Z,0
2022-10-16T03:49:23.363Z,0
2022-10-16T03:50:23.295Z,0
2022-10-16T03:51:23.326Z,0
2022-10-16T03:52:23.386Z,0
2022-10-16T03:53:23.256Z,0
2022-10-16T03:54:26.143Z,0
2022-10-16T03:55:27.119Z,0
2022-10-16T03:56:23.310Z,0
2022-10-16T03:57:23.500Z,0
2022-10-16T03:58:23.364Z,0
2022-10-16T03:59:23.322Z,0
2022-10-16T04:00:23.292Z,0
2022-10-16T04:01:23.747Z,0
2022-10-16T04:02:23.301Z,0
2022-10-16T04:03:25.985Z,0
2022-10-16T04:04:23.308Z,0
2022-10-16T04:05:26.350Z,0
2022-10-16T04:06:23.308Z,0
2022-10-16T04:07:23.415Z,0
2022-10-16T04:08:23.275Z,0
2022-10-16T04:09:23.276Z,0
2022-10-16T04:10:26.388Z,0
2022-10-16T04:11:23.251Z,0
2022-10-16T04:12:23.304Z,0
2022-10-16T04:13:24.467Z,0
2022-10-16T04:14:23.316Z,0
2022-10-16T04:15:23.276Z,0
2022-10-16T04:16:31.312Z,0
2022-10-16T04:17:23.499Z,0
2022-10-16T04:18:23.304Z,0
2022-10-16T04:19:23.301Z,0
2022-10-16T04:20:23.313Z,0
2022-10-16T04:21:26.073Z,0
2022-10-16T04:22:23.625Z,0
2022-10-16T04:23:23.326Z,0
2022-10-16T04:24:23.337Z,0
2022-10-16T04:25:23.289Z,0
2022-10-16T04:26:23.354Z,0
2022-10-16T04:27:24.666Z,0
2022-10-16T04:28:23.591Z,0
2022-10-16T04:29:23.337Z,0
2022-10-16T04:30:23.522Z,0
2022-10-16T04:31:23.314Z,0
2022-10-16T04:32:26.470Z,0
2022-10-16T04:33:23.303Z,0
2022-10-16T04:34:23.359Z,0
2022-10-16T04:35:23.314Z,0
2022-10-16T04:36:28.286Z,0
2022-10-16T04:37:23.475Z,0
2022-10-16T04:38:26.428Z,0
2022-10-16T04:39:23.338Z,0
2022-10-16T04:40:23.345Z,0
2022-10-16T04:41:23.351Z,0
2022-10-16T04:42:23.405Z,0
2022-10-16T04:43:26.427Z,0
2022-10-16T04:44:23.350Z,0
2022-10-16T04:45:26.289Z,0
2022-10-16T04:46:23.446Z,0
2022-10-16T04:47:23.565Z,0
2022-10-16T04:48:23.395Z,0
2022-10-16T04:49:26.132Z,0
2022-10-16T04:50:23.356Z,0
2022-10-16T04:51:23.349Z,0
2022-10-16T04:52:23.392Z,0
2022-10-16T04:53:23.370Z,0
2022-10-16T04:54:25.272Z,0
2022-10-16T04:55:23.372Z,0
2022-10-16T04:56:23.383Z,0
2022-10-16T04:57:23.523Z,0
2022-10-16T04:58:23.415Z,0
2022-10-16T04:59:23.361Z,0
2022-10-16T05:00:26.565Z,0
2022-10-16T05:01:23.342Z,0
2022-10-16T05:02:23.492Z,0
2022-10-16T05:03:24.400Z,0
2022-10-16T05:04:23.604Z,0
2022-10-16T05:05:26.111Z,0
2022-10-16T05:06:23.387Z,0
2022-10-16T05:07:23.660Z,0
2022-10-16T05:08:29.306Z,0
2022-10-16T05:09:23.410Z,0
2022-10-16T05:10:23.465Z,0
2022-10-16T05:11:26.205Z,0
2022-10-16T05:12:23.421Z,0
2022-10-16T05:13:23.391Z,0
2022-10-16T05:14:23.548Z,0
2022-10-16T05:15:23.386Z,0
2022-10-16T05:16:26.201Z,0
2022-10-16T05:17:23.652Z,0
2022-10-16T05:18:23.431Z,0
2022-10-16T05:19:39.332Z,0
2022-10-16T05:20:23.391Z,0
2022-10-16T05:21:23.418Z,0
2022-10-16T05:22:26.278Z,0
2022-10-16T05:23:23.573Z,0
2022-10-16T05:24:23.409Z,0
2022-10-16T05:25:26.207Z,0
2022-10-16T05:26:23.414Z,0
2022-10-16T05:27:27.999Z,0
2022-10-16T05:28:23.583Z,0
2022-10-16T05:29:24.464Z,0
2022-10-16T05:30:23.435Z,0
2022-10-16T05:31:23.588Z,0
2022-10-16T05:32:23.798Z,0
2022-10-16T05:33:26.166Z,0
2022-10-16T05:34:23.421Z,0
2022-10-16T05:35:23.443Z,0
2022-10-16T05:36:23.564Z,0
2022-10-16T05:37:23.728Z,0
2022-10-16T05:38:24.533Z,0
2022-10-16T05:39:23.492Z,0
2022-10-16T05:40:23.453Z,0
2022-10-16T05:41:23.511Z,0
2022-10-16T05:42:23.477Z,0
2022-10-16T05:43:26.445Z,0
2022-10-16T05:44:23.578Z,0
2022-10-16T05:45:23.473Z,0
2022-10-16T05:46:23.511Z,0
2022-10-16T05:47:23.614Z,0
2022-10-16T05:48:23.456Z,0
2022-10-16T05:49:26.239Z,0
2022-10-16T05:50:23.456Z,0
2022-10-16T05:51:23.463Z,0
2022-10-16T05:52:23.460Z,0
2022-10-16T05:53:23.460Z,0
2022-10-16T05:54:26.212Z,0
2022-10-16T05:55:23.475Z,0
2022-10-16T05:56:23.456Z,0
2022-10-16T05:57:23.679Z,0
2022-10-16T05:58:23.482Z,0
2022-10-16T05:59:23.465Z,0
2022-10-16T06:00:23.690Z,0
2022-10-16T06:01:24.028Z,0
2022-10-16T06:02:23.477Z,0
2022-10-16T06:03:23.449Z,0
2022-10-16T06:04:23.732Z,0
2022-10-16T06:05:26.311Z,0
2022-10-16T06:06:26.388Z,0
2022-10-16T06:07:23.887Z,0
2022-10-16T06:08:23.475Z,0
2022-10-16T06:09:23.539Z,0
2022-10-16T06:10:23.492Z,0
2022-10-16T06:11:23.470Z,0
2022-10-16T06:12:23.502Z,0
2022-10-16T06:13:23.565Z,0
2022-10-16T06:14:23.466Z,0
2022-10-16T06:15:23.537Z,0
2022-10-16T06:16:23.483Z,0
2022-10-16T06:17:23.666Z,0
2022-10-16T06:18:23.509Z,0
2022-10-16T06:19:23.478Z,0
2022-10-16T06:20:23.874Z,0
2022-10-16T06:21:26.252Z,0
2022-10-16T06:22:23.512Z,0
2022-10-16T06:23:23.506Z,0
2022-10-16T06:24:23.524Z,0
2022-10-16T06:25:23.527Z,0
2022-10-16T06:26:23.391Z,0
2022-10-16T06:27:23.481Z,0
2022-10-16T06:28:23.643Z,0
2022-10-16T06:29:23.569Z,0
2022-10-16T06:30:23.543Z,0
2022-10-16T06:31:23.549Z,0
2022-10-16T06:32:26.583Z,0
2022-10-16T06:33:23.548Z,5
2022-10-16T06:34:23.546Z,5
2022-10-16T06:35:23.528Z,5
2022-10-16T06:36:23.665Z,5
2022-10-16T06:37:26.873Z,5
2022-10-16T06:38:23.524Z,10
2022-10-16T06:39:23.537Z,10
2022-10-16T06:40:23.546Z,10
2022-10-16T06:41:23.569Z,5
2022-10-16T06:42:23.667Z,5
2022-10-16T06:43:26.641Z,5
2022-10-16T06:44:23.539Z,5
2022-10-16T06:45:23.619Z,5
2022-10-16T06:46:23.581Z,0
2022-10-16T06:47:23.604Z,0
2022-10-16T06:48:26.424Z,0
2022-10-16T06:49:23.529Z,0
2022-10-16T06:50:23.413Z,0
2022-10-16T06:51:23.595Z,0
2022-10-16T06:52:23.791Z,0
2022-10-16T06:53:23.548Z,0
2022-10-16T06:54:26.329Z,0
2022-10-16T06:55:23.612Z,0
2022-10-16T06:56:23.570Z,0
2022-10-16T06:57:23.556Z,0
2022-10-16T06:58:23.694Z,0
2022-10-16T06:59:23.802Z,0
2022-10-16T07:00:29.940Z,0
2022-10-16T07:01:23.562Z,0
2022-10-16T07:02:23.823Z,0
2022-10-16T07:03:23.569Z,0
2022-10-16T07:04:23.589Z,0
2022-10-16T07:05:26.598Z,0
2022-10-16T07:06:23.607Z,0
2022-10-16T07:07:23.568Z,0
2022-10-16T07:08:26.397Z,0
2022-10-16T07:09:23.759Z,0
2022-10-16T07:10:26.625Z,0
2022-10-16T07:11:23.570Z,0
2022-10-16T07:12:23.843Z,0
2022-10-16T07:13:23.440Z,0
2022-10-16T07:14:23.772Z,0
2022-10-16T07:15:23.588Z,0
2022-10-16T07:16:29.233Z,0
2022-10-16T07:17:23.584Z,0
2022-10-16T07:18:23.757Z,0
2022-10-16T07:19:23.617Z,0
2022-10-16T07:20:23.724Z,0
2022-10-16T07:21:26.451Z,0
2022-10-16T07:22:23.821Z,5
2022-10-16T07:23:23.585Z,5
2022-10-16T07:24:23.597Z,5
2022-10-16T07:25:23.611Z,5
2022-10-16T07:26:23.633Z,5
2022-10-16T07:27:26.745Z,5
2022-10-16T07:28:23.913Z,5
2022-10-16T07:29:23.636Z,5
2022-10-16T07:30:23.727Z,5
2022-10-16T07:31:23.613Z,5
2022-10-16T07:32:27.214Z,5
2022-10-16T07:33:23.609Z,5
2022-10-16T07:34:23.637Z,5
2022-10-16T07:35:23.630Z,0
2022-10-16T07:36:25.487Z,0
2022-10-16T07:37:23.767Z,0
2022-10-16T07:38:26.421Z,0
2022-10-16T07:39:23.621Z,5
2022-10-16T07:40:23.776Z,5
2022-10-16T07:41:23.691Z,5
2022-10-16T07:42:23.642Z,5
2022-10-16T07:43:26.655Z,5
2022-10-16T07:44:23.631Z,5
2022-10-16T07:45:23.643Z,5
2022-10-16T07:46:23.618Z,5
2022-10-16T07:47:23.820Z,5
2022-10-16T07:48:23.734Z,10
2022-10-16T07:49:26.461Z,10
2022-10-16T07:50:23.660Z,10
2022-10-16T07:51:23.646Z,10
2022-10-16T07:52:23.584Z,10
2022-10-16T07:53:29.297Z,10
2022-10-16T07:54:26.839Z,10
2022-10-16T07:55:23.699Z,10
2022-10-16T07:56:23.673Z,10
2022-10-16T07:57:23.899Z,10
2022-10-16T07:58:23.738Z,10
2022-10-16T07:59:23.663Z,10
2022-10-16T08:00:26.356Z,5
2022-10-16T08:01:24.194Z,5
2022-10-16T08:02:26.667Z,5
2022-10-16T08:03:23.652Z,5
2022-10-16T08:04:23.744Z,5
2022-10-16T08:05:26.833Z,5
2022-10-16T08:06:30.330Z,5
2022-10-16T08:07:23.846Z,5
2022-10-16T08:08:23.696Z,5
2022-10-16T08:09:23.817Z,5
2022-10-16T08:10:23.919Z,5
2022-10-16T08:11:23.684Z,5
2022-10-16T08:12:23.669Z,5
2022-10-16T08:13:23.675Z,5
2022-10-16T08:14:23.697Z,5
2022-10-16T08:15:23.703Z,5
2022-10-16T08:16:26.819Z,5
2022-10-16T08:17:23.876Z,5
2022-10-16T08:18:23.683Z,5
2022-10-16T08:19:23.918Z,5
2022-10-16T08:20:23.750Z,10
2022-10-16T08:21:30.223Z,10
2022-10-16T08:22:23.716Z,10
2022-10-16T08:23:23.701Z,10
2022-10-16T08:24:23.731Z,15
2022-10-16T08:25:23.721Z,15
2022-10-16T08:26:23.734Z,15
2022-10-16T08:27:23.842Z,15
2022-10-16T08:28:24.114Z,15
2022-10-16T08:29:23.696Z,20
2022-10-16T08:30:23.815Z,20
2022-10-16T08:31:23.848Z,20
2022-10-16T08:32:31.926Z,20
2022-10-16T08:33:23.702Z,20
2022-10-16T08:34:23.723Z,20
2022-10-16T08:35:23.740Z,35
2022-10-16T08:36:23.804Z,25
2022-10-16T08:37:23.720Z,35
2022-10-16T08:38:23.721Z,30
2022-10-16T08:39:23.730Z,30
2022-10-16T08:41:23.736Z,45
2022-10-16T08:42:24.003Z,25
2022-10-16T08:43:26.467Z,20
2022-10-16T08:44:23.588Z,20
2022-10-16T08:45:23.750Z,20
2022-10-16T08:46:23.652Z,20
2022-10-16T08:47:23.919Z,20
2022-10-16T08:48:32.682Z,20
2022-10-16T08:49:23.732Z,20
2022-10-16T08:50:23.998Z,20
2022-10-16T08:51:23.748Z,20
2022-10-16T08:52:24.108Z,20
2022-10-16T08:53:23.787Z,20
2022-10-16T08:54:23.753Z,35
2022-10-16T08:55:23.772Z,40
2022-10-16T08:56:23.764Z,30
2022-10-16T08:57:31.167Z,30
2022-10-16T08:58:23.753Z,25
2022-10-16T08:59:26.799Z,25
2022-10-16T09:00:23.936Z,25
2022-10-16T09:01:24.428Z,20
2022-10-16T09:02:24.137Z,25
2022-10-16T09:03:23.790Z,25
2022-10-16T09:04:26.879Z,25
2022-10-16T09:05:23.817Z,25
2022-10-16T09:06:23.776Z,20
2022-10-16T09:07:23.779Z,20
2022-10-16T09:08:23.919Z,20
2022-10-16T09:09:23.857Z,20
2022-10-16T09:10:26.877Z,20
2022-10-16T09:11:23.795Z,20
2022-10-16T09:12:23.931Z,20
2022-10-16T09:13:23.820Z,20
2022-10-16T09:14:23.817Z,20
2022-10-16T09:15:27.461Z,20
2022-10-16T09:16:23.797Z,20
2022-10-16T09:17:23.888Z,20
2022-10-16T09:18:24.315Z,20
2022-10-16T09:19:23.801Z,20
2022-10-16T09:20:23.891Z,20
2022-10-16T09:21:26.671Z,15
2022-10-16T09:22:23.836Z,15
2022-10-16T09:23:23.834Z,15
2022-10-16T09:24:29.497Z,15
2022-10-16T09:25:23.853Z,15
2022-10-16T09:26:26.723Z,15
2022-10-16T09:27:23.919Z,15
2022-10-16T09:28:24.033Z,15
2022-10-16T09:29:23.884Z,10
2022-10-16T09:30:24.003Z,10
2022-10-16T09:31:23.834Z,10
2022-10-16T09:32:29.839Z,10
2022-10-16T09:33:23.822Z,10
2022-10-16T09:34:27.957Z,10
2022-10-16T09:35:24.059Z,10
2022-10-16T09:36:26.625Z,10
2022-10-16T09:37:27.718Z,10
2022-10-16T09:38:23.815Z,10
2022-10-16T09:39:23.823Z,10
2022-10-16T09:40:23.973Z,10
2022-10-16T09:41:23.939Z,10
2022-10-16T09:42:23.838Z,10
2022-10-16T09:43:26.883Z,10
2022-10-16T09:44:23.853Z,10
2022-10-16T09:45:23.888Z,10
2022-10-16T09:46:23.886Z,10
2022-10-16T09:47:24.201Z,10
2022-10-16T09:48:24.940Z,10
2022-10-16T09:49:23.863Z,10
2022-10-16T09:50:23.965Z,10
2022-10-16T09:51:23.851Z,10
2022-10-16T09:52:24.018Z,10
2022-10-16T09:53:23.840Z,10
2022-10-16T09:54:27.074Z,10
2022-10-16T09:55:23.881Z,10
2022-10-16T09:56:23.948Z,10
2022-10-16T09:57:24.229Z,10
2022-10-16T09:58:23.861Z,10
2022-10-16T09:59:29.359Z,10
2022-10-16T10:00:23.986Z,10
2022-10-16T10:01:27.719Z,10
2022-10-16T10:02:23.861Z,15
2022-10-16T10:03:23.955Z,15
2022-10-16T10:04:23.910Z,15
2022-10-16T10:05:26.894Z,15
2022-10-16T10:06:23.897Z,15
2022-10-16T10:07:24.084Z,15
2022-10-16T10:08:23.903Z,20
2022-10-16T10:09:23.884Z,20
2022-10-16T10:10:26.757Z,20
2022-10-16T10:11:25.325Z,20
2022-10-16T10:12:29.986Z,20
2022-10-16T10:13:26.917Z,20
2022-10-16T10:14:23.913Z,20
2022-10-16T10:15:23.935Z,20
2022-10-16T10:16:24.969Z,20
2022-10-16T10:17:23.935Z,20
2022-10-16T10:18:23.935Z,20
2022-10-16T10:19:23.901Z,20
2022-10-16T10:20:23.983Z,20
2022-10-16T10:21:35.692Z,20
2022-10-16T10:22:24.093Z,20
2022-10-16T10:23:23.934Z,20
2022-10-16T10:24:23.909Z,20
2022-10-16T10:25:23.981Z,20
2022-10-16T10:26:23.917Z,20
2022-10-16T10:27:27.811Z,20
2022-10-16T10:28:24.251Z,20
2022-10-16T10:29:23.915Z,20
2022-10-16T10:30:26.299Z,20
2022-10-16T10:31:23.943Z,20
2022-10-16T10:32:27.494Z,20
2022-10-16T10:33:23.934Z,20
2022-10-16T10:34:23.932Z,20
2022-10-16T10:35:23.951Z,20
2022-10-16T10:36:23.934Z,20
2022-10-16T10:37:24.304Z,20
2022-10-16T10:38:23.968Z,20
2022-10-16T10:39:24.202Z,20
2022-10-16T10:40:24.067Z,20
2022-10-16T10:41:25.455Z,20
2022-10-16T10:42:24.189Z,20
2022-10-16T10:43:26.989Z,20
2022-10-16T10:44:23.967Z,20
2022-10-16T10:45:23.980Z,20
2022-10-16T10:46:23.950Z,20
2022-10-16T10:47:24.001Z,20
2022-10-16T10:49:23.979Z,20
2022-10-16T10:50:24.122Z,20
2022-10-16T10:51:23.962Z,20
2022-10-16T10:52:27.599Z,20
2022-10-16T10:53:23.974Z,20
2022-10-16T10:54:23.981Z,20
2022-10-16T10:55:24.015Z,20
2022-10-16T10:56:23.858Z,20
2022-10-16T10:57:24.024Z,20
2022-10-16T10:58:23.960Z,20
2022-10-16T10:59:27.061Z,20
2022-10-16T11:00:24.170Z,20
2022-10-16T11:01:24.268Z,20
2022-10-16T11:02:24.427Z,20
2022-10-16T11:03:24.118Z,20
2022-10-16T11:04:25.170Z,20
2022-10-16T11:05:24.024Z,20
2022-10-16T11:06:26.892Z,20
2022-10-16T11:07:24.045Z,20
2022-10-16T11:08:24.038Z,20
2022-10-16T11:09:23.985Z,20
2022-10-16T11:10:26.796Z,20
2022-10-16T11:11:23.998Z,20
2022-10-16T11:12:23.995Z,20
2022-10-16T11:13:24.002Z,20
2022-10-16T11:14:24.008Z,20
2022-10-16T11:15:27.116Z,20
2022-10-16T11:16:28.467Z,20
2022-10-16T11:17:24.229Z,20
2022-10-16T11:18:23.859Z,20
2022-10-16T11:19:24.011Z,20
2022-10-16T11:20:24.049Z,20
2022-10-16T11:21:28.780Z,20
2022-10-16T11:22:24.012Z,20
2022-10-16T11:23:24.025Z,20
2022-10-16T11:24:24.043Z,25
2022-10-16T11:25:24.356Z,25
2022-10-16T11:26:27.191Z,25
2022-10-16T11:27:24.153Z,25
2022-10-16T11:28:26.522Z,25
2022-10-16T11:29:24.227Z,25
2022-10-16T11:30:24.020Z,25
2022-10-16T11:31:25.592Z,25
2022-10-16T11:32:24.066Z,25
2022-10-16T11:33:24.033Z,25
2022-10-16T11:34:24.094Z,25
2022-10-16T11:35:24.039Z,25
2022-10-16T11:36:24.103Z,30
2022-10-16T11:37:24.581Z,30
2022-10-16T11:38:24.049Z,35
2022-10-16T11:39:24.060Z,40
2022-10-16T11:40:24.051Z,40
2022-10-16T11:41:24.070Z,40
2022-10-16T11:42:27.166Z,50
2022-10-16T11:43:24.102Z,45
2022-10-16T11:44:24.111Z,30
2022-10-16T11:45:24.082Z,30
2022-10-16T11:46:24.075Z,30
2022-10-16T11:48:07.447Z,30
2022-10-16T11:48:26.820Z,35
2022-10-16T11:49:24.093Z,30
2022-10-16T11:50:24.544Z,25
2022-10-16T11:51:24.087Z,25
2022-10-16T11:52:24.362Z,25
2022-10-16T11:53:26.995Z,25
2022-10-16T11:54:24.212Z,35
2022-10-16T11:55:24.068Z,25
2022-10-16T11:56:24.103Z,40
2022-10-16T11:57:24.295Z,40
2022-10-16T11:58:24.103Z,55
2022-10-16T11:59:25.281Z,50
2022-10-16T12:00:24.079Z,45
2022-10-16T12:02:24.390Z,35
2022-10-16T12:03:24.556Z,40
2022-10-16T12:04:26.843Z,45
2022-10-16T12:05:24.092Z,45
2022-10-16T12:06:24.121Z,30
2022-10-16T12:07:24.091Z,45
2022-10-16T12:08:24.135Z,45
2022-10-16T12:09:27.175Z,40
2022-10-16T12:10:30.320Z,40
2022-10-16T12:11:24.356Z,40
2022-10-16T12:12:24.411Z,40
2022-10-16T12:13:24.128Z,40
2022-10-16T12:14:24.122Z,40
2022-10-16T12:16:04.186Z,40
2022-10-16T12:16:24.147Z,40
2022-10-16T12:17:24.110Z,40
2022-10-16T12:18:24.110Z,40
2022-10-16T12:19:24.305Z,40
2022-10-16T12:20:24.130Z,15
2022-10-16T12:21:26.993Z,20
2022-10-16T12:22:24.342Z,15
2022-10-16T12:23:24.125Z,25
2022-10-16T12:24:24.151Z,25
2022-10-16T12:25:24.139Z,35
2022-10-16T12:26:27.320Z,30
2022-10-16T12:27:24.483Z,40
2022-10-16T12:28:24.316Z,40
2022-10-16T12:29:24.156Z,40
2022-10-16T12:30:24.171Z,40
2022-10-16T12:31:24.196Z,40
2022-10-16T12:32:53.741Z,40
2022-10-16T12:33:24.132Z,30
2022-10-16T12:34:24.153Z,40
2022-10-16T12:35:26.969Z,35
2022-10-16T12:36:31.800Z,25
2022-10-16T12:37:33.184Z,25
2022-10-16T12:38:25.217Z,40
2022-10-16T12:39:24.209Z,40
2022-10-16T12:40:24.232Z,10
2022-10-16T12:41:24.254Z,10
2022-10-16T12:42:24.338Z,10
2022-10-16T12:43:33.603Z,10
2022-10-16T12:44:24.190Z,10
2022-10-16T12:45:26.929Z,10
2022-10-16T12:46:24.219Z,10
2022-10-16T12:47:24.344Z,10
2022-10-16T12:48:42.269Z,10
2022-10-16T12:49:24.171Z,10
2022-10-16T12:50:26.539Z,10
2022-10-16T12:51:24.260Z,10
2022-10-16T12:52:24.499Z,15
2022-10-16T12:53:24.171Z,15
2022-10-16T12:54:27.056Z,15
2022-10-16T12:55:24.190Z,15
2022-10-16T12:56:24.232Z,15
2022-10-16T12:57:24.356Z,15
2022-10-16T12:58:24.205Z,20
2022-10-16T12:59:27.028Z,20
2022-10-16T13:00:24.722Z,20
2022-10-16T13:01:27.360Z,20
2022-10-16T13:02:24.229Z,20
2022-10-16T13:03:24.186Z,20
2022-10-16T13:04:24.200Z,20
2022-10-16T13:05:24.241Z,20
2022-10-16T13:06:24.218Z,20
2022-10-16T13:07:24.353Z,20
2022-10-16T13:08:24.206Z,20
2022-10-16T13:09:24.221Z,20
2022-10-16T13:10:25.301Z,20
2022-10-16T13:11:24.239Z,20
2022-10-16T13:12:24.235Z,20
2022-10-16T13:13:24.204Z,25
2022-10-16T13:14:24.209Z,40
2022-10-16T13:15:27.066Z,35
2022-10-16T13:16:24.246Z,30
2022-10-16T13:17:24.469Z,35
2022-10-16T13:18:24.246Z,30
2022-10-16T13:19:24.352Z,50
2022-10-16T13:20:24.220Z,50
2022-10-16T13:21:24.244Z,45
2022-10-16T13:22:24.228Z,40
2022-10-16T13:23:24.320Z,20
2022-10-16T13:24:24.258Z,20
2022-10-16T13:25:24.470Z,20
2022-10-16T13:26:27.583Z,35
2022-10-16T13:27:24.616Z,35
2022-10-16T13:28:24.461Z,30
2022-10-16T13:29:24.275Z,20
2022-10-16T13:30:30.545Z,35
2022-10-16T13:31:24.310Z,30
2022-10-16T13:32:24.274Z,25
2022-10-16T13:33:24.254Z,15
2022-10-16T13:34:27.034Z,15
2022-10-16T13:35:24.292Z,10
2022-10-16T13:36:24.251Z,10
2022-10-16T13:37:27.657Z,10
2022-10-16T13:38:24.256Z,15
2022-10-16T13:39:24.366Z,10
2022-10-16T13:40:24.269Z,15
2022-10-16T13:41:24.257Z,20
2022-10-16T13:42:30.784Z,25
2022-10-16T13:43:24.280Z,25
2022-10-16T13:44:24.306Z,40
2022-10-16T13:45:24.286Z,35
2022-10-16T13:46:24.326Z,40
2022-10-16T13:47:24.578Z,35
2022-10-16T13:48:24.330Z,30
2022-10-16T13:49:24.290Z,35
2022-10-16T13:50:25.089Z,35
2022-10-16T13:51:25.672Z,35
2022-10-16T13:52:24.561Z,35
2022-10-16T13:53:27.333Z,35
2022-10-16T13:54:24.287Z,35
2022-10-16T13:55:24.373Z,35
2022-10-16T13:56:25.349Z,35
2022-10-16T13:57:35.994Z,35
2022-10-16T13:58:27.406Z,35
2022-10-16T13:59:24.304Z,35
2022-10-16T14:00:24.394Z,35
2022-10-16T14:01:26.125Z,35
2022-10-16T14:02:25.219Z,35
2022-10-16T14:03:24.307Z,35
2022-10-16T14:04:24.242Z,35
2022-10-16T14:05:24.311Z,35
2022-10-16T14:06:24.341Z,30
2022-10-16T14:07:30.284Z,35
2022-10-16T14:08:24.311Z,30
2022-10-16T14:09:27.365Z,30
2022-10-16T14:10:24.321Z,35
2022-10-16T14:11:24.397Z,35
2022-10-16T14:12:30.975Z,35
2022-10-16T14:13:24.404Z,35
2022-10-16T14:14:24.336Z,30
2022-10-16T14:15:27.243Z,30
2022-10-16T14:16:24.603Z,35
2022-10-16T14:17:24.525Z,35
2022-10-16T14:18:24.565Z,35
2022-10-16T14:19:24.459Z,35
2022-10-16T14:20:31.642Z,30
2022-10-16T14:21:24.720Z,30
2022-10-16T14:22:24.681Z,25
2022-10-16T14:23:24.533Z,30
2022-10-16T14:24:24.398Z,30
2022-10-16T14:25:25.118Z,20
2022-10-16T14:26:25.444Z,25
2022-10-16T14:27:24.610Z,30
2022-10-16T14:28:24.457Z,25
2022-10-16T14:29:28.299Z,25
2022-10-16T14:30:24.211Z,20
2022-10-16T14:31:27.280Z,20
2022-10-16T14:32:24.720Z,20
2022-10-16T14:33:24.428Z,20
2022-10-16T14:34:24.361Z,20
2022-10-16T14:35:24.723Z,5
2022-10-16T14:36:24.371Z,5
2022-10-16T14:37:33.575Z,5